createdAt,value
2019-03-20T00:01:47.087Z,62.71
2019-03-20T00:04:17.418Z,62.85
2019-03-20T00:06:49.377Z,62.93
2019-03-20T00:09:19.956Z,63.00
2019-03-20T00:11:50.244Z,63.28
2019-03-20T00:14:20.448Z,63.15
2019-03-20T00:16:51.066Z,63.29
2019-03-20T00:19:22.714Z,63.38
2019-03-20T00:21:54.492Z,63.42
2019-03-20T00:24:24.715Z,63.43
2019-03-20T00:26:55.004Z,63.70
2019-03-20T00:29:25.471Z,63.57
2019-03-20T00:31:55.680Z,63.82
2019-03-20T00:34:26.036Z,64.03
2019-03-20T00:36:57.602Z,63.96
2019-03-20T00:39:28.001Z,64.04
2019-03-20T00:41:59.650Z,64.19
2019-03-20T00:44:30.274Z,64.15
2019-03-20T00:47:00.892Z,64.10
2019-03-20T00:49:31.459Z,64.57
2019-03-20T00:52:01.663Z,64.62
2019-03-20T00:54:31.934Z,64.63
2019-03-20T00:57:02.216Z,64.65
2019-03-20T00:59:34.102Z,64.67
2019-03-20T01:02:04.341Z,64.73
2019-03-20T01:04:34.577Z,64.85
2019-03-20T01:07:04.880Z,64.97
2019-03-20T01:09:36.425Z,65.11
2019-03-20T01:12:06.773Z,65.20
2019-03-20T01:14:37.330Z,65.17
2019-03-20T01:17:07.644Z,65.26
2019-03-20T01:19:37.861Z,65.34
2019-03-20T01:22:08.246Z,65.20
2019-03-20T01:24:38.500Z,65.29
2019-03-20T01:27:08.912Z,65.24
2019-03-20T01:29:39.392Z,65.27
2019-03-20T01:32:09.874Z,65.41
2019-03-20T01:34:40.394Z,65.38
2019-03-20T01:37:10.897Z,65.16
2019-03-20T01:39:41.363Z,65.15
2019-03-20T01:42:11.955Z,65.05
2019-03-20T01:44:42.133Z,64.98
2019-03-20T01:47:12.390Z,65.26
2019-03-20T01:49:42.585Z,65.49
2019-03-20T01:52:12.829Z,65.49
2019-03-20T01:54:43.019Z,65.62
2019-03-20T01:57:13.335Z,65.48
2019-03-20T01:59:43.560Z,65.20
2019-03-20T02:02:14.421Z,65.16
2019-03-20T02:04:44.788Z,64.91
2019-03-20T02:07:16.689Z,64.69
2019-03-20T02:09:46.973Z,64.68
2019-03-20T02:12:17.462Z,64.54
2019-03-20T02:14:48.716Z,64.56
2019-03-20T02:17:19.978Z,64.62
2019-03-20T02:19:50.178Z,64.46
2019-03-20T02:22:21.493Z,64.37
2019-03-20T02:24:53.467Z,64.39
2019-03-20T02:27:23.753Z,64.41
2019-03-20T02:29:54.277Z,64.52
2019-03-20T02:32:24.605Z,64.56
2019-03-20T02:34:55.032Z,64.62
2019-03-20T02:37:25.193Z,64.95
2019-03-20T02:39:55.491Z,65.05
2019-03-20T02:42:26.099Z,65.15
2019-03-20T02:44:56.598Z,65.04
2019-03-20T02:47:26.691Z,65.05
2019-03-20T02:49:58.047Z,65.10
2019-03-20T02:52:28.263Z,65.11
2019-03-20T02:54:58.597Z,65.38
2019-03-20T02:57:30.643Z,65.46
2019-03-20T03:00:03.521Z,65.69
2019-03-20T03:02:35.517Z,65.67
2019-03-20T03:05:06.609Z,65.33
2019-03-20T03:07:37.614Z,65.11
2019-03-20T03:10:08.524Z,65.40
2019-03-20T03:12:38.808Z,65.38
2019-03-20T03:15:10.836Z,65.44
2019-03-20T03:17:41.121Z,65.23
2019-03-20T03:20:12.651Z,65.18
2019-03-20T03:22:43.068Z,65.14
2019-03-20T03:25:14.542Z,65.31
2019-03-20T03:27:44.807Z,65.18
2019-03-20T03:30:16.590Z,65.14
2019-03-20T03:32:47.344Z,65.21
2019-03-20T03:35:19.913Z,65.42
2019-03-20T03:37:49.866Z,65.43
2019-03-20T03:40:20.443Z,65.28
2019-03-20T03:42:52.348Z,65.45
2019-03-20T03:45:22.580Z,65.30
2019-03-20T03:47:53.369Z,65.22
2019-03-20T03:50:23.658Z,65.30
2019-03-20T03:52:54.219Z,65.19
2019-03-20T03:55:24.447Z,65.09
2019-03-20T03:57:54.681Z,65.18
2019-03-20T04:00:26.279Z,65.06
2019-03-20T04:02:56.640Z,64.96
2019-03-20T04:05:26.895Z,64.88
2019-03-20T04:07:57.532Z,65.00
2019-03-20T04:10:27.729Z,64.84
2019-03-20T04:12:57.978Z,64.75
2019-03-20T04:15:28.252Z,64.89
2019-03-20T04:17:58.631Z,64.90
2019-03-20T04:20:28.831Z,64.83
2019-03-20T04:22:59.173Z,65.11
2019-03-20T04:25:29.333Z,65.46
2019-03-20T04:28:00.872Z,65.58
2019-03-20T04:30:32.267Z,65.58
2019-03-20T04:33:02.540Z,65.87
2019-03-20T04:35:32.706Z,65.77
2019-03-20T04:38:03.002Z,65.68
2019-03-20T04:40:33.263Z,65.97
2019-03-20T04:43:03.849Z,66.14
2019-03-20T04:45:35.160Z,66.22
2019-03-20T04:48:06.181Z,66.22
2019-03-20T04:50:36.552Z,66.16
2019-03-20T04:53:08.216Z,66.31
2019-03-20T04:55:38.965Z,66.42
2019-03-20T04:58:09.487Z,66.40
2019-03-20T05:00:40.058Z,66.42
2019-03-20T05:03:10.442Z,66.79
2019-03-20T05:05:40.894Z,66.77
2019-03-20T05:08:11.090Z,66.87
2019-03-20T05:11:22.254Z,66.87
2019-03-20T05:14:08.553Z,67.17
2019-03-20T05:16:39.487Z,67.03
2019-03-20T05:19:11.023Z,66.83
2019-03-20T05:21:41.481Z,66.90
2019-03-20T05:24:11.713Z,66.89
2019-03-20T05:26:42.265Z,66.84
2019-03-20T05:29:12.826Z,66.89
2019-03-20T05:31:43.169Z,66.78
2019-03-20T05:34:13.382Z,66.97
2019-03-20T05:36:44.334Z,66.79
2019-03-20T05:39:15.920Z,66.63
2019-03-20T05:41:46.550Z,66.32
2019-03-20T05:44:17.538Z,66.25
2019-03-20T05:46:47.774Z,66.15
2019-03-20T05:49:20.930Z,66.18
2019-03-20T05:51:51.584Z,66.24
2019-03-20T05:54:23.372Z,66.38
2019-03-20T05:56:53.782Z,66.27
2019-03-20T05:59:24.348Z,66.27
2019-03-20T06:01:55.085Z,66.33
2019-03-20T06:04:26.526Z,66.25
2019-03-20T06:06:57.264Z,66.02
2019-03-20T06:09:29.220Z,65.82
2019-03-20T06:11:59.891Z,65.45
2019-03-20T06:14:31.835Z,65.32
2019-03-20T06:17:02.118Z,65.23
2019-03-20T06:19:32.518Z,65.20
2019-03-20T06:22:04.999Z,65.18
2019-03-20T06:24:35.862Z,65.07
2019-03-20T06:27:07.583Z,65.05
2019-03-20T06:29:38.322Z,64.94
2019-03-20T06:32:09.603Z,65.12
2019-03-20T06:34:41.448Z,64.80
2019-03-20T06:37:16.583Z,64.59
2019-03-20T06:39:48.253Z,64.44
2019-03-20T06:42:20.439Z,64.27
2019-03-20T06:44:50.924Z,64.20
2019-03-20T06:47:22.681Z,64.15
2019-03-20T06:49:58.935Z,64.03
2019-03-20T06:52:30.404Z,63.84
2019-03-20T06:55:01.407Z,63.87
2019-03-20T06:57:31.946Z,63.76
2019-03-20T07:00:41.534Z,63.65
2019-03-20T07:03:16.288Z,63.52
2019-03-20T07:06:14.070Z,63.19
2019-03-20T07:08:49.568Z,63.08
2019-03-20T07:11:18.640Z,62.74
2019-03-20T07:13:50.667Z,62.38
2019-03-20T07:16:22.696Z,62.19
2019-03-20T07:18:53.026Z,61.81
2019-03-20T07:21:23.563Z,61.49
2019-03-20T07:23:55.251Z,61.04
2019-03-20T07:26:25.525Z,60.55
2019-03-20T07:28:55.749Z,59.93
2019-03-20T07:31:26.132Z,59.46
2019-03-20T07:33:57.891Z,59.08
2019-03-20T07:36:28.411Z,58.77
2019-03-20T07:38:58.842Z,58.12
2019-03-20T07:41:29.596Z,57.91
2019-03-20T07:44:01.318Z,57.03
2019-03-20T07:46:31.732Z,56.83
2019-03-20T07:49:16.032Z,56.65
2019-03-20T07:51:46.315Z,56.08
2019-03-20T07:54:16.557Z,55.32
2019-03-20T07:56:46.800Z,54.25
2019-03-20T07:59:17.533Z,54.53
2019-03-20T08:01:48.166Z,54.53
2019-03-20T08:04:18.445Z,52.85
2019-03-20T08:06:50.130Z,52.85
2019-03-20T08:09:22.071Z,52.53
2019-03-20T08:11:52.612Z,52.25
2019-03-20T08:14:22.854Z,52.25
2019-03-20T08:16:53.669Z,51.38
2019-03-20T08:19:23.893Z,51.38
2019-03-20T08:21:54.159Z,51.23
2019-03-20T08:24:24.391Z,51.03
2019-03-20T08:26:55.945Z,50.88
2019-03-20T08:29:26.233Z,50.65
2019-03-20T08:31:56.371Z,50.70
2019-03-20T08:34:27.025Z,50.47
2019-03-20T08:37:02.345Z,50.05
2019-03-20T08:39:33.565Z,50.30
2019-03-20T08:42:04.275Z,49.93
2019-03-20T08:44:35.918Z,50.08
2019-03-20T08:47:06.120Z,49.94
2019-03-20T08:49:36.893Z,49.76
2019-03-20T08:52:07.296Z,49.77
2019-03-20T08:54:37.860Z,49.54
2019-03-20T08:57:12.024Z,49.35
2019-03-20T08:59:42.314Z,49.82
2019-03-20T09:02:12.933Z,49.66
2019-03-20T09:04:43.600Z,49.53
2019-03-20T09:07:14.143Z,49.31
2019-03-20T09:09:44.690Z,49.36
2019-03-20T09:12:15.927Z,49.15
2019-03-20T09:14:46.375Z,49.12
2019-03-20T09:17:16.867Z,49.14
2019-03-20T09:19:47.155Z,48.55
2019-03-20T09:22:18.973Z,48.09
2019-03-20T09:24:49.627Z,47.75
2019-03-20T09:27:21.144Z,47.71
2019-03-20T09:29:51.452Z,47.36
2019-03-20T09:32:22.805Z,46.88
2019-03-20T09:34:53.158Z,46.91
2019-03-20T09:37:23.512Z,46.69
2019-03-20T09:39:54.896Z,46.50
2019-03-20T09:42:25.083Z,46.71
2019-03-20T09:44:55.392Z,46.87
2019-03-20T09:47:26.847Z,46.37
2019-03-20T09:49:58.609Z,46.65
2019-03-20T09:52:28.771Z,47.14
2019-03-20T09:54:59.766Z,47.97
2019-03-20T09:57:30.031Z,47.77
2019-03-20T10:00:00.597Z,47.20
2019-03-20T10:02:31.298Z,47.19
2019-03-20T10:05:05.124Z,47.09
2019-03-20T10:07:35.810Z,46.61
2019-03-20T10:10:08.285Z,46.97
2019-03-20T10:12:45.425Z,46.87
2019-03-20T10:15:14.261Z,47.05
2019-03-20T10:17:45.613Z,47.27
2019-03-20T10:20:18.892Z,47.54
2019-03-20T10:22:50.214Z,47.47
2019-03-20T10:25:23.870Z,47.46
2019-03-20T10:27:54.261Z,47.97
2019-03-20T10:30:24.986Z,48.08
2019-03-20T10:32:55.345Z,47.90
2019-03-20T10:35:26.023Z,47.63
2019-03-20T10:37:58.874Z,47.45
2019-03-20T10:40:34.689Z,47.62
2019-03-20T10:43:05.959Z,47.92
2019-03-20T10:45:36.900Z,47.91
2019-03-20T10:48:07.223Z,47.37
2019-03-20T10:50:38.819Z,46.89
2019-03-20T10:53:09.614Z,46.72
2019-03-20T10:55:41.192Z,46.45
2019-03-20T10:58:11.498Z,46.58
2019-03-20T11:00:42.041Z,46.75
2019-03-20T11:03:12.516Z,46.90
2019-03-20T11:05:43.051Z,46.60
2019-03-20T11:08:13.401Z,45.61
2019-03-20T11:10:46.263Z,45.28
2019-03-20T11:13:16.958Z,45.21
2019-03-20T11:15:47.514Z,45.39
2019-03-20T11:18:17.916Z,44.93
2019-03-20T11:20:49.057Z,44.16
2019-03-20T11:23:20.648Z,44.36
2019-03-20T11:25:50.816Z,44.48
2019-03-20T11:28:22.064Z,44.65
2019-03-20T11:30:53.085Z,44.42
2019-03-20T11:33:23.689Z,43.62
2019-03-20T11:35:54.638Z,43.34
2019-03-20T11:38:24.939Z,44.02
2019-03-20T11:40:59.439Z,43.47
2019-03-20T11:43:31.048Z,42.95
2019-03-20T11:46:01.608Z,42.07
2019-03-20T11:48:33.517Z,42.49
2019-03-20T11:51:06.366Z,41.72
2019-03-20T11:53:38.056Z,41.55
2019-03-20T11:56:08.665Z,41.96
2019-03-20T11:58:39.167Z,42.13
2019-03-20T12:01:11.381Z,42.60
2019-03-20T12:03:47.239Z,42.73
2019-03-20T12:06:19.437Z,41.49
2019-03-20T12:08:51.355Z,40.93
2019-03-20T12:11:23.384Z,41.17
2019-03-20T12:13:54.084Z,40.33
2019-03-20T12:16:27.781Z,40.32
2019-03-20T12:19:05.524Z,40.12
2019-03-20T12:21:39.602Z,40.29
2019-03-20T12:24:11.375Z,41.08
2019-03-20T12:26:42.101Z,41.35
2019-03-20T12:29:13.099Z,41.26
2019-03-20T12:31:44.493Z,41.33
2019-03-20T12:34:16.372Z,41.44
2019-03-20T12:36:47.417Z,41.39
2019-03-20T12:39:19.490Z,41.77
2019-03-20T12:41:50.242Z,41.21
2019-03-20T12:44:20.880Z,40.81
2019-03-20T12:46:52.360Z,40.97
2019-03-20T12:49:22.943Z,40.92
2019-03-20T12:51:55.030Z,40.77
2019-03-20T12:54:27.186Z,40.73
2019-03-20T12:56:57.544Z,40.29
2019-03-20T12:59:28.560Z,39.95
2019-03-20T13:01:59.024Z,39.55
2019-03-20T13:04:30.838Z,39.49
2019-03-20T13:07:01.514Z,39.26
2019-03-20T13:09:31.679Z,38.67
2019-03-20T13:12:03.739Z,38.77
2019-03-20T13:14:34.519Z,38.31
2019-03-20T13:17:05.049Z,37.81
2019-03-20T13:19:36.047Z,38.14
2019-03-20T13:22:08.883Z,37.44
2019-03-20T13:24:45.972Z,37.77
2019-03-20T13:27:17.984Z,37.94
2019-03-20T13:29:48.695Z,37.73
2019-03-20T13:32:19.683Z,37.33
2019-03-20T13:34:55.320Z,37.30
2019-03-20T13:37:26.023Z,37.35
2019-03-20T13:39:57.896Z,36.78
2019-03-20T13:42:29.121Z,35.34
2019-03-20T13:45:01.511Z,35.73
2019-03-20T13:47:34.152Z,35.53
2019-03-20T13:50:06.597Z,36.46
2019-03-20T13:52:41.505Z,36.56
2019-03-20T13:55:14.520Z,36.25
2019-03-20T13:57:45.674Z,35.50
2019-03-20T14:00:23.154Z,36.20
2019-03-20T14:02:56.450Z,35.85
2019-03-20T14:05:28.874Z,34.73
2019-03-20T14:08:05.387Z,35.12
2019-03-20T14:10:49.436Z,35.34
2019-03-20T14:13:10.366Z,34.74
2019-03-20T14:15:41.972Z,35.08
2019-03-20T14:18:13.673Z,35.23
2019-03-20T14:20:45.262Z,34.60
2019-03-20T14:23:22.651Z,34.64
2019-03-20T14:25:56.340Z,33.91
2019-03-20T14:28:28.432Z,33.82
2019-03-20T14:30:59.203Z,33.31
2019-03-20T14:33:31.345Z,33.05
2019-03-20T14:36:08.873Z,33.13
2019-03-20T14:38:40.723Z,33.06
2019-03-20T14:41:21.609Z,33.11
2019-03-20T14:43:46.667Z,33.35
2019-03-20T14:46:28.118Z,32.79
2019-03-20T14:49:00.239Z,33.15
2019-03-20T14:51:34.930Z,32.87
2019-03-20T14:54:05.717Z,32.47
2019-03-20T14:56:37.532Z,32.81
2019-03-20T14:59:10.421Z,33.09
2019-03-20T15:01:41.223Z,32.90
2019-03-20T15:04:11.813Z,33.41
2019-03-20T15:06:42.753Z,33.56
2019-03-20T15:09:13.759Z,33.08
2019-03-20T15:11:44.038Z,33.31
2019-03-20T15:14:14.715Z,34.46
2019-03-20T15:16:45.263Z,34.65
2019-03-20T15:19:15.971Z,34.51
2019-03-20T15:21:46.388Z,34.77
2019-03-20T15:24:18.621Z,35.20
2019-03-20T15:26:49.663Z,35.00
2019-03-20T15:29:24.472Z,34.93
2019-03-20T15:31:55.928Z,35.04
2019-03-20T15:34:28.518Z,35.74
2019-03-20T15:36:59.122Z,36.30
2019-03-20T15:39:29.706Z,35.95
2019-03-20T15:42:01.708Z,36.10
2019-03-20T15:44:35.942Z,36.38
2019-03-20T15:47:07.418Z,36.19
2019-03-20T15:49:39.428Z,35.99
2019-03-20T15:52:14.756Z,36.13
2019-03-20T15:54:50.131Z,36.28
2019-03-20T15:57:20.941Z,36.15
2019-03-20T15:59:51.874Z,36.23
2019-03-20T16:02:23.969Z,36.77
2019-03-20T16:04:59.616Z,36.89
2019-03-20T16:07:30.467Z,36.95
2019-03-20T16:10:03.478Z,36.66
2019-03-20T16:12:37.867Z,36.94
2019-03-20T16:15:11.841Z,36.48
2019-03-20T16:17:46.540Z,36.55
2019-03-20T16:20:19.033Z,36.60
2019-03-20T16:22:50.360Z,36.81
2019-03-20T16:25:22.272Z,36.68
2019-03-20T16:27:57.380Z,36.51
2019-03-20T16:30:31.442Z,36.51
2019-03-20T16:33:04.391Z,36.02
2019-03-20T16:35:38.454Z,36.40
2019-03-20T16:38:10.375Z,36.40
2019-03-20T16:40:42.624Z,36.09
2019-03-20T16:43:18.721Z,36.72
2019-03-20T16:45:51.951Z,37.11
2019-03-20T16:48:24.475Z,37.43
2019-03-20T16:50:55.443Z,37.97
2019-03-20T16:53:26.031Z,38.54
2019-03-20T16:55:59.233Z,38.80
2019-03-20T16:58:32.323Z,38.96
2019-03-20T17:01:06.799Z,39.35
2019-03-20T17:03:41.701Z,39.57
2019-03-20T17:06:13.932Z,39.89
2019-03-20T17:08:45.146Z,39.87
2019-03-20T17:11:26.457Z,40.45
2019-03-20T17:13:54.026Z,40.66
2019-03-20T17:16:29.638Z,40.56
2019-03-20T17:19:07.045Z,40.83
2019-03-20T17:21:41.438Z,41.50
2019-03-20T17:24:12.322Z,41.48
2019-03-20T17:26:46.890Z,41.96
2019-03-20T17:29:17.566Z,42.24
2019-03-20T17:31:49.419Z,42.31
2019-03-20T17:34:20.988Z,42.60
2019-03-20T17:36:53.504Z,43.09
2019-03-20T17:39:24.202Z,43.59
2019-03-20T17:41:57.273Z,43.70
2019-03-20T17:44:30.967Z,43.93
2019-03-20T17:47:04.082Z,44.50
2019-03-20T17:49:37.388Z,44.75
2019-03-20T17:52:08.179Z,45.34
2019-03-20T17:54:41.547Z,46.21
2019-03-20T17:57:15.582Z,46.31
2019-03-20T17:59:48.272Z,46.09
2019-03-20T18:02:23.991Z,46.89
2019-03-20T18:04:52.771Z,47.33
2019-03-20T18:07:26.377Z,47.35
2019-03-20T18:09:58.444Z,47.68
2019-03-20T18:12:29.499Z,48.36
2019-03-20T18:15:01.728Z,48.68
2019-03-20T18:17:32.970Z,48.83
2019-03-20T18:20:07.539Z,48.38
2019-03-20T18:22:41.223Z,48.43
2019-03-20T18:25:12.799Z,49.08
2019-03-20T18:27:43.517Z,49.60
2019-03-20T18:30:21.492Z,49.47
2019-03-20T18:32:52.371Z,49.96
2019-03-20T18:35:25.106Z,50.27
2019-03-20T18:37:56.542Z,49.97
2019-03-20T18:40:28.162Z,50.06
2019-03-20T18:42:58.776Z,50.55
2019-03-20T18:45:29.405Z,50.59
2019-03-20T18:48:00.042Z,50.64
2019-03-20T18:50:31.944Z,50.73
2019-03-20T18:53:03.869Z,50.56
2019-03-20T18:55:34.776Z,50.73
2019-03-20T18:58:06.672Z,51.04
2019-03-20T19:00:39.816Z,50.94
2019-03-20T19:03:11.086Z,51.03
2019-03-20T19:05:49.758Z,50.72
2019-03-20T19:08:22.098Z,50.61
2019-03-20T19:10:55.997Z,50.80
2019-03-20T19:13:29.883Z,50.82
2019-03-20T19:16:01.503Z,50.78
2019-03-20T19:18:34.042Z,51.00
2019-03-20T19:21:05.808Z,50.95
2019-03-20T19:23:38.072Z,51.01
2019-03-20T19:26:08.894Z,50.92
2019-03-20T19:28:39.870Z,50.99
2019-03-20T19:31:10.918Z,50.91
2019-03-20T19:33:41.252Z,50.88
2019-03-20T19:36:13.051Z,50.74
2019-03-20T19:38:43.840Z,50.97
2019-03-20T19:41:16.268Z,51.03
2019-03-20T19:43:46.793Z,51.08
2019-03-20T19:46:17.867Z,51.13
2019-03-20T19:48:48.535Z,51.29
2019-03-20T19:51:18.881Z,51.44
2019-03-20T19:53:50.788Z,51.63
2019-03-20T19:56:21.554Z,51.68
2019-03-20T19:58:54.201Z,51.89
2019-03-20T20:01:25.044Z,51.72
2019-03-20T20:03:55.910Z,52.13
2019-03-20T20:06:27.339Z,52.46
2019-03-20T20:08:58.484Z,52.29
2019-03-20T20:11:29.145Z,52.25
2019-03-20T20:13:59.661Z,52.24
2019-03-20T20:16:30.797Z,52.45
2019-03-20T20:19:02.210Z,52.76
2019-03-20T20:21:32.939Z,52.84
2019-03-20T20:24:08.675Z,52.89
2019-03-20T20:26:39.103Z,52.93
2019-03-20T20:29:11.013Z,52.87
2019-03-20T20:31:47.957Z,52.82
2019-03-20T20:34:18.167Z,52.95
2019-03-20T20:36:49.156Z,53.25
2019-03-20T20:39:19.720Z,53.13
2019-03-20T20:41:50.687Z,53.14
2019-03-20T20:44:21.700Z,53.48
2019-03-20T20:46:53.505Z,53.72
2019-03-20T20:49:26.793Z,53.69
2019-03-20T20:51:59.608Z,53.58
2019-03-20T20:54:31.470Z,53.50
2019-03-20T20:57:03.573Z,53.73
2019-03-20T20:59:33.952Z,53.76
2019-03-20T21:02:06.329Z,53.83
2019-03-20T21:04:42.601Z,53.96
2019-03-20T21:07:15.823Z,54.02
2019-03-20T21:09:46.286Z,54.19
2019-03-20T21:12:18.417Z,54.21
2019-03-20T21:14:49.395Z,54.18
2019-03-20T21:17:29.608Z,54.33
2019-03-20T21:20:01.146Z,54.50
2019-03-20T21:23:09.222Z,54.71
2019-03-20T21:25:42.250Z,54.88
2019-03-20T21:28:51.640Z,54.88
2019-03-20T21:31:44.226Z,54.86
2019-03-20T21:34:39.806Z,55.08
2019-03-20T21:38:05.194Z,55.05
2019-03-20T21:40:41.803Z,55.05
2019-03-20T21:43:38.594Z,54.87
2019-03-20T21:46:53.750Z,55.25
2019-03-20T21:49:24.790Z,55.25
2019-03-20T21:51:59.106Z,55.12
2019-03-20T21:55:14.875Z,55.24
2019-03-20T21:58:16.450Z,55.24
2019-03-20T22:01:23.318Z,55.10
2019-03-20T22:03:58.626Z,55.61
2019-03-20T22:07:17.462Z,55.92
2019-03-20T22:10:46.993Z,56.17
2019-03-20T22:13:53.629Z,55.59
2019-03-20T22:16:52.984Z,55.59
2019-03-20T22:20:02.560Z,55.99
2019-03-20T22:23:09.338Z,55.99
2019-03-20T22:26:31.919Z,55.87
2019-03-20T22:29:26.128Z,56.22
2019-03-20T22:32:36.970Z,56.27
2019-03-20T22:35:45.730Z,56.15
2019-03-20T22:38:38.361Z,56.77
2019-03-20T22:41:43.869Z,56.77
2019-03-20T22:44:14.770Z,56.23
2019-03-20T22:47:34.777Z,56.43
2019-03-20T22:50:16.780Z,56.86
2019-03-20T22:53:18.786Z,56.91
2019-03-20T22:56:18.029Z,56.68
2019-03-20T22:58:49.406Z,56.68
2019-03-20T23:01:46.367Z,57.54
2019-03-20T23:04:25.517Z,57.54
2019-03-20T23:06:57.303Z,57.33
2019-03-20T23:09:28.934Z,57.35
2019-03-20T23:12:01.605Z,57.35
2019-03-20T23:14:32.904Z,57.44
2019-03-20T23:17:04.200Z,57.58
2019-03-20T23:19:36.263Z,57.76
2019-03-20T23:22:07.347Z,57.12
2019-03-20T23:24:42.063Z,57.12
2019-03-20T23:27:16.241Z,57.58
2019-03-20T23:29:48.094Z,57.76
2019-03-20T23:32:18.937Z,58.37
2019-03-20T23:34:49.897Z,58.37
2019-03-20T23:37:21.520Z,58.04
2019-03-20T23:39:52.631Z,58.19
2019-03-20T23:42:24.841Z,58.19
2019-03-20T23:44:56.145Z,58.19
2019-03-20T23:47:35.316Z,58.30
2019-03-20T23:50:08.378Z,58.37
2019-03-20T23:52:40.778Z,58.42
2019-03-20T23:55:12.682Z,58.37
2019-03-20T23:57:43.490Z,58.37
